createdAt,value
2019-04-25T00:00:04.794Z,0
2019-04-25T00:01:06.144Z,0
2019-04-25T00:02:07.497Z,0
2019-04-25T00:03:08.845Z,0
2019-04-25T00:04:11.728Z,0
2019-04-25T00:05:11.541Z,0
2019-04-25T00:06:12.882Z,0
2019-04-25T00:07:14.343Z,0
2019-04-25T00:08:15.696Z,0
2019-04-25T00:09:17.048Z,0
2019-04-25T00:10:18.407Z,0
2019-04-25T00:11:21.497Z,0
2019-04-25T00:12:22.161Z,0
2019-04-25T00:13:22.394Z,0
2019-04-25T00:14:23.737Z,0
2019-04-25T00:15:25.093Z,0
2019-04-25T00:16:26.452Z,0
2019-04-25T00:17:27.797Z,0
2019-04-25T00:18:29.152Z,0
2019-04-25T00:19:31.592Z,0
2019-04-25T00:20:31.828Z,0
2019-04-25T00:21:33.840Z,0
2019-04-25T00:22:34.502Z,0
2019-04-25T00:23:35.851Z,0
2019-04-25T00:24:37.206Z,0
2019-04-25T00:25:38.562Z,0
2019-04-25T00:26:40.163Z,0
2019-04-25T00:27:43.262Z,0
2019-04-25T00:28:43.610Z,0
2019-04-25T00:29:44.976Z,0
2019-04-25T00:30:46.063Z,0
2019-04-25T00:31:47.219Z,0
2019-04-25T00:32:47.802Z,0
2019-04-25T00:33:49.575Z,0
2019-04-25T00:34:51.685Z,0
2019-04-25T00:35:52.748Z,0
2019-04-25T00:36:53.164Z,0
2019-04-25T00:37:54.429Z,0
2019-04-25T00:38:55.777Z,0
2019-04-25T00:39:57.137Z,0
2019-04-25T00:40:58.486Z,0
2019-04-25T00:41:59.841Z,0
2019-04-25T00:43:01.617Z,0
2019-04-25T00:44:02.532Z,0
2019-04-25T00:45:03.869Z,0
2019-04-25T00:46:05.216Z,0
2019-04-25T00:47:06.569Z,0
2019-04-25T00:48:07.923Z,0
2019-04-25T00:49:09.282Z,0
2019-04-25T00:50:11.939Z,0
2019-04-25T00:51:11.949Z,0
2019-04-25T00:52:13.297Z,0
2019-04-25T00:53:14.652Z,0
2019-04-25T00:54:16.013Z,0
2019-04-25T00:55:26.251Z,0
2019-04-25T00:56:18.687Z,0
2019-04-25T00:57:20.042Z,0
2019-04-25T00:58:21.515Z,0
2019-04-25T00:59:22.697Z,0
2019-04-25T01:00:24.043Z,0
2019-04-25T01:01:25.418Z,0
2019-04-25T01:02:26.774Z,0
2019-04-25T01:03:28.117Z,0
2019-04-25T01:04:29.469Z,0
2019-04-25T01:05:31.598Z,0
2019-04-25T01:06:32.123Z,0
2019-04-25T01:07:34.435Z,0
2019-04-25T01:08:34.791Z,0
2019-04-25T01:09:36.149Z,0
2019-04-25T01:10:37.500Z,0
2019-04-25T01:11:38.858Z,0
2019-04-25T01:12:41.603Z,0
2019-04-25T01:13:42.258Z,0
2019-04-25T01:14:42.819Z,0
2019-04-25T01:15:44.827Z,0
2019-04-25T01:16:46.366Z,0
2019-04-25T01:17:46.989Z,0
2019-04-25T01:18:48.756Z,0
2019-04-25T01:19:49.453Z,0
2019-04-25T01:20:51.133Z,0
2019-04-25T01:21:54.142Z,0
2019-04-25T01:22:54.260Z,0
2019-04-25T01:23:55.695Z,0
2019-04-25T01:24:56.126Z,0
2019-04-25T01:25:57.419Z,0
2019-04-25T01:26:58.769Z,0
2019-04-25T01:28:00.135Z,0
2019-04-25T01:29:01.477Z,0
2019-04-25T01:30:04.301Z,0
2019-04-25T01:31:04.157Z,0
2019-04-25T01:32:05.484Z,0
2019-04-25T01:33:06.839Z,0
2019-04-25T01:34:08.199Z,0
2019-04-25T01:35:09.545Z,0
2019-04-25T01:36:10.909Z,0
2019-04-25T01:37:13.534Z,0
2019-04-25T01:38:13.879Z,0
2019-04-25T01:39:14.880Z,0
2019-04-25T01:40:16.236Z,0
2019-04-25T01:41:17.592Z,0
2019-04-25T01:42:18.968Z,0
2019-04-25T01:43:20.330Z,0
2019-04-25T01:44:21.678Z,0
2019-04-25T01:45:23.973Z,0
2019-04-25T01:46:24.364Z,0
2019-04-25T01:47:25.705Z,0
2019-04-25T01:48:27.049Z,0
2019-04-25T01:49:28.425Z,0
2019-04-25T01:50:29.780Z,0
2019-04-25T01:51:31.132Z,0
2019-04-25T01:52:33.473Z,0
2019-04-25T01:53:35.525Z,0
2019-04-25T01:54:35.375Z,0
2019-04-25T01:55:36.740Z,0
2019-04-25T01:56:38.104Z,0
2019-04-25T01:57:39.470Z,0
2019-04-25T01:58:40.841Z,0
2019-04-25T01:59:43.712Z,0
2019-04-25T02:00:44.849Z,0
2019-04-25T02:01:44.836Z,0
2019-04-25T02:02:46.208Z,0
2019-04-25T02:03:47.559Z,0
2019-04-25T02:04:48.947Z,0
2019-04-25T02:05:50.663Z,0
2019-04-25T02:06:53.678Z,0
2019-04-25T02:07:54.462Z,0
2019-04-25T02:08:55.987Z,0
2019-04-25T02:10:36.095Z,0
2019-04-25T02:11:37.446Z,0
2019-04-25T02:12:38.803Z,0
2019-04-25T02:13:40.162Z,0
2019-04-25T02:14:41.499Z,0
2019-04-25T02:15:43.297Z,0
2019-04-25T02:16:44.164Z,0
2019-04-25T02:17:45.528Z,0
2019-04-25T02:18:46.879Z,0
2019-04-25T02:19:48.236Z,0
2019-04-25T02:20:49.579Z,0
2019-04-25T02:21:51.437Z,0
2019-04-25T02:22:52.313Z,0
2019-04-25T02:23:55.412Z,0
2019-04-25T02:24:55.882Z,0
2019-04-25T02:26:10.716Z,0
2019-04-25T02:26:57.549Z,0
2019-04-25T02:28:00.923Z,0
2019-04-25T02:29:00.515Z,0
2019-04-25T02:30:01.532Z,0
2019-04-25T02:31:05.612Z,0
2019-04-25T02:32:08.851Z,0
2019-04-25T02:33:08.799Z,0
2019-04-25T02:34:08.681Z,0
2019-04-25T02:35:09.293Z,0
2019-04-25T02:36:09.450Z,0
2019-04-25T02:37:10.807Z,0
2019-04-25T02:38:14.615Z,0
2019-04-25T02:39:14.873Z,0
2019-04-25T02:40:14.823Z,0
2019-04-25T02:41:16.170Z,0
2019-04-25T02:42:17.536Z,0
2019-04-25T02:43:18.886Z,0
2019-04-25T02:44:20.248Z,0
2019-04-25T02:45:21.594Z,0
2019-04-25T02:46:24.731Z,0
2019-04-25T02:47:24.849Z,0
2019-04-25T02:48:25.591Z,0
2019-04-25T02:49:35.369Z,0
2019-04-25T02:50:28.270Z,0
2019-04-25T02:51:29.629Z,0
2019-04-25T02:52:30.995Z,0
2019-04-25T02:53:36.335Z,0
2019-04-25T02:54:34.861Z,0
2019-04-25T02:55:37.555Z,0
2019-04-25T02:56:38.829Z,0
2019-04-25T02:57:37.583Z,0
2019-04-25T02:58:38.939Z,0
2019-04-25T02:59:40.288Z,0
2019-04-25T03:00:56.515Z,0
2019-04-25T03:01:44.462Z,0
2019-04-25T03:02:44.630Z,0
2019-04-25T03:03:45.590Z,0
2019-04-25T03:04:46.944Z,0
2019-04-25T03:05:48.339Z,0
2019-04-25T03:06:49.669Z,0
2019-04-25T03:07:51.008Z,0
2019-04-25T03:08:54.077Z,0
2019-04-25T03:09:54.727Z,0
2019-04-25T03:10:54.996Z,0
2019-04-25T03:11:58.236Z,0
2019-04-25T03:12:58.627Z,0
2019-04-25T03:14:00.470Z,0
2019-04-25T03:15:00.315Z,0
2019-04-25T03:16:02.410Z,0
2019-04-25T03:17:05.091Z,0
2019-04-25T03:18:05.754Z,0
2019-04-25T03:19:07.648Z,0
2019-04-25T03:20:09.421Z,0
2019-04-25T03:21:13.509Z,0
2019-04-25T03:22:11.571Z,0
2019-04-25T03:23:10.881Z,0
2019-04-25T03:24:13.881Z,0
2019-04-25T03:25:16.483Z,0
2019-04-25T03:26:14.862Z,0
2019-04-25T03:27:16.219Z,0
2019-04-25T03:28:17.584Z,0
2019-04-25T03:29:18.937Z,0
2019-04-25T03:30:20.302Z,0
2019-04-25T03:31:24.053Z,0
2019-04-25T03:32:27.832Z,0
2019-04-25T03:33:25.973Z,0
2019-04-25T03:34:25.653Z,0
2019-04-25T03:35:26.978Z,0
2019-04-25T03:36:28.326Z,0
2019-04-25T03:37:29.673Z,0
2019-04-25T03:38:31.020Z,0
2019-04-25T03:39:33.509Z,0
2019-04-25T03:40:34.031Z,0
2019-04-25T03:41:35.006Z,4
2019-04-25T03:42:36.372Z,4
2019-04-25T03:43:37.955Z,4
2019-04-25T03:44:39.296Z,4
2019-04-25T03:45:40.644Z,4
2019-04-25T03:46:42.003Z,8
2019-04-25T03:47:43.370Z,4
2019-04-25T03:48:44.710Z,8
2019-04-25T03:49:46.069Z,8
2019-04-25T03:50:47.415Z,8
2019-04-25T03:51:48.770Z,12
2019-04-25T03:52:50.125Z,16
2019-04-25T03:53:51.474Z,20
2019-04-25T03:54:53.422Z,24
2019-04-25T03:55:54.147Z,28
2019-04-25T03:56:56.222Z,32
2019-04-25T03:57:56.819Z,36
2019-04-25T03:58:58.185Z,44
2019-04-25T03:59:59.545Z,48
2019-04-25T04:01:00.885Z,56
2019-04-25T04:02:03.825Z,68
2019-04-25T04:03:05.728Z,80
2019-04-25T04:04:06.679Z,92
2019-04-25T04:05:06.936Z,108
2019-04-25T04:06:08.535Z,120
2019-04-25T04:07:10.030Z,140
2019-04-25T04:08:10.149Z,156
2019-04-25T04:09:11.833Z,176
2019-04-25T04:10:14.205Z,196
2019-04-25T04:11:14.529Z,216
2019-04-25T04:12:15.748Z,244
2019-04-25T04:13:16.789Z,264
2019-04-25T04:14:18.143Z,292
2019-04-25T04:15:19.485Z,320
2019-04-25T04:16:20.844Z,348
2019-04-25T04:17:23.684Z,384
2019-04-25T04:18:26.548Z,416
2019-04-25T04:19:24.835Z,448
2019-04-25T04:20:26.185Z,480
2019-04-25T04:21:27.526Z,524
2019-04-25T04:22:28.882Z,564
2019-04-25T04:23:30.239Z,604
2019-04-25T04:24:31.585Z,648
2019-04-25T04:25:33.636Z,692
2019-04-25T04:26:34.272Z,740
2019-04-25T04:27:35.624Z,796
2019-04-25T04:28:36.979Z,852
2019-04-25T04:29:38.327Z,904
2019-04-25T04:30:39.685Z,960
2019-04-25T04:31:41.041Z,1016
2019-04-25T04:32:44.050Z,1068
2019-04-25T04:33:43.731Z,1120
2019-04-25T04:34:45.500Z,1160
2019-04-25T04:35:46.397Z,1216
2019-04-25T04:36:47.755Z,1264
2019-04-25T04:37:49.107Z,1324
2019-04-25T04:38:50.592Z,1388
2019-04-25T04:39:53.482Z,1460
2019-04-25T04:40:53.194Z,1524
2019-04-25T04:41:55.498Z,1600
2019-04-25T04:42:55.870Z,1672
2019-04-25T04:43:57.221Z,1744
2019-04-25T04:44:58.571Z,1804
2019-04-25T04:45:59.935Z,1860
2019-04-25T04:47:01.295Z,1908
2019-04-25T04:48:03.266Z,1960
2019-04-25T04:49:04.051Z,2008
2019-04-25T04:50:05.300Z,2060
2019-04-25T04:51:06.649Z,2108
2019-04-25T04:52:08.283Z,2152
2019-04-25T04:53:09.319Z,2200
2019-04-25T04:54:10.978Z,2244
2019-04-25T04:55:14.233Z,2292
2019-04-25T04:56:15.061Z,2340
2019-04-25T04:57:25.704Z,2384
2019-04-25T04:58:16.409Z,2424
2019-04-25T04:59:17.296Z,2472
2019-04-25T05:00:18.709Z,2516
2019-04-25T05:01:20.020Z,2560
2019-04-25T05:02:21.381Z,2600
2019-04-25T05:03:24.029Z,2640
2019-04-25T05:04:25.071Z,2684
2019-04-25T05:05:25.391Z,2724
2019-04-25T05:06:26.750Z,2764
2019-04-25T05:07:28.110Z,2804
2019-04-25T05:08:29.472Z,2848
2019-04-25T05:09:30.832Z,2892
2019-04-25T05:10:33.219Z,2940
2019-04-25T05:11:33.585Z,2992
2019-04-25T05:12:34.820Z,3036
2019-04-25T05:13:36.181Z,3072
2019-04-25T05:14:37.535Z,3104
2019-04-25T05:15:38.892Z,3128
2019-04-25T05:16:40.256Z,3156
2019-04-25T05:17:41.611Z,3176
2019-04-25T05:18:43.755Z,3200
2019-04-25T05:19:44.293Z,3228
2019-04-25T05:20:45.641Z,3252
2019-04-25T05:21:47.002Z,3276
2019-04-25T05:22:48.365Z,3312
2019-04-25T05:23:49.728Z,3336
2019-04-25T05:24:51.082Z,3364
2019-04-25T05:25:54.179Z,3392
2019-04-25T05:26:53.995Z,3420
2019-04-25T05:28:00.676Z,3452
2019-04-25T05:28:56.415Z,3480
2019-04-25T05:29:57.772Z,3516
2019-04-25T05:30:59.136Z,3544
2019-04-25T05:32:00.502Z,3580
2019-04-25T05:33:01.860Z,3608
2019-04-25T05:34:03.705Z,3640
2019-04-25T05:35:04.552Z,3668
2019-04-25T05:36:06.052Z,3688
2019-04-25T05:37:07.236Z,3712
2019-04-25T05:38:08.587Z,3736
2019-04-25T05:39:09.956Z,3756
2019-04-25T05:40:11.335Z,3780
2019-04-25T05:41:13.731Z,3804
2019-04-25T05:42:15.150Z,3828
2019-04-25T05:43:16.289Z,3852
2019-04-25T05:44:16.941Z,3872
2019-04-25T05:45:18.945Z,3896
2019-04-25T05:46:19.311Z,3924
2019-04-25T05:47:21.700Z,3948
2019-04-25T05:48:21.991Z,3968
2019-04-25T05:49:24.296Z,3996
2019-04-25T05:50:25.113Z,4016
2019-04-25T05:51:26.011Z,4044
2019-04-25T05:52:27.356Z,4060
2019-04-25T05:53:28.712Z,4084
2019-04-25T05:54:30.064Z,4108
2019-04-25T05:55:31.417Z,4132
2019-04-25T05:56:33.775Z,4152
2019-04-25T05:57:45.186Z,4180
2019-04-25T05:58:35.423Z,4204
2019-04-25T05:59:36.782Z,4228
2019-04-25T06:00:38.133Z,4248
2019-04-25T06:01:39.488Z,4276
2019-04-25T06:02:40.860Z,4304
2019-04-25T06:03:43.884Z,4328
2019-04-25T06:04:43.646Z,4360
2019-04-25T06:05:44.856Z,4384
2019-04-25T06:06:46.216Z,4412
2019-04-25T06:07:47.583Z,4444
2019-04-25T06:08:48.937Z,4476
2019-04-25T06:09:50.295Z,4496
2019-04-25T06:10:51.659Z,4528
2019-04-25T06:11:53.360Z,4560
2019-04-25T06:12:54.337Z,4664
2019-04-25T06:13:55.708Z,5292
2019-04-25T06:14:57.151Z,6608
2019-04-25T06:15:58.503Z,7044
2019-04-25T06:16:59.892Z,9608
2019-04-25T06:18:01.257Z,12124
2019-04-25T06:19:12.927Z,13316
2019-04-25T06:20:05.987Z,13912
2019-04-25T06:21:05.291Z,14076
2019-04-25T06:22:06.681Z,14208
2019-04-25T06:23:08.037Z,14344
2019-04-25T06:24:09.393Z,14516
2019-04-25T06:25:13.687Z,14700
2019-04-25T06:26:22.508Z,14976
2019-04-25T06:27:13.939Z,15276
2019-04-25T06:28:14.728Z,15548
2019-04-25T06:29:16.087Z,15756
2019-04-25T06:30:17.443Z,15992
2019-04-25T06:31:19.750Z,16292
2019-04-25T06:32:21.353Z,16584
2019-04-25T06:33:23.669Z,16888
2019-04-25T06:34:24.780Z,17232
2019-04-25T06:35:25.872Z,17596
2019-04-25T06:36:25.467Z,17952
2019-04-25T06:37:26.988Z,18528
2019-04-25T06:38:28.385Z,18880
2019-04-25T06:39:29.488Z,19488
2019-04-25T06:40:30.848Z,20512
2019-04-25T06:41:32.248Z,21600
2019-04-25T06:42:34.575Z,22688
2019-04-25T06:43:34.913Z,23904
2019-04-25T06:44:36.282Z,25248
2019-04-25T06:45:37.648Z,27584
2019-04-25T06:46:39.008Z,30912
2019-04-25T06:47:40.378Z,34720
2019-04-25T06:48:43.356Z,42400
2019-04-25T06:49:43.212Z,52256
2019-04-25T06:50:44.409Z,61376
2019-04-25T06:51:46.087Z,67040
2019-04-25T06:52:47.121Z,65088
2019-04-25T06:53:48.482Z,62496
2019-04-25T06:54:49.857Z,60800
2019-04-25T06:55:51.218Z,65792
2019-04-25T06:56:53.542Z,72288
2019-04-25T06:57:53.999Z,73472
2019-04-25T06:58:55.251Z,78272
2019-04-25T06:59:56.614Z,87168
2019-04-25T07:01:00.843Z,97376
2019-04-25T07:01:59.322Z,105952
2019-04-25T07:03:00.726Z,113856
2019-04-25T07:04:02.087Z,128544
2019-04-25T07:05:03.974Z,131040
2019-04-25T07:06:04.799Z,120736
2019-04-25T07:07:12.351Z,120352
2019-04-25T07:08:07.507Z,118560
2019-04-25T07:09:08.880Z,109824
2019-04-25T07:10:10.254Z,101824
2019-04-25T07:11:11.613Z,95392
2019-04-25T07:12:13.493Z,86976
2019-04-25T07:13:14.376Z,79232
2019-04-25T07:14:15.694Z,77728
2019-04-25T07:15:17.064Z,79552
2019-04-25T07:16:18.437Z,76384
2019-04-25T07:17:19.814Z,74304
2019-04-25T07:18:21.192Z,72000
2019-04-25T07:19:24.765Z,66752
2019-04-25T07:20:26.127Z,62560
2019-04-25T07:21:25.925Z,60480
2019-04-25T07:22:26.836Z,60704
2019-04-25T07:23:27.940Z,60192
2019-04-25T07:24:29.278Z,57312
2019-04-25T07:25:30.654Z,56064
2019-04-25T07:26:34.320Z,55776
2019-04-25T07:27:34.329Z,55488
2019-04-25T07:28:36.050Z,55264
2019-04-25T07:29:36.037Z,56320
2019-04-25T07:30:48.415Z,56064
2019-04-25T07:31:38.759Z,54560
2019-04-25T07:32:40.139Z,53376
2019-04-25T07:33:43.244Z,52928
2019-04-25T07:34:43.791Z,51616
2019-04-25T07:35:44.309Z,51200
2019-04-25T07:36:45.721Z,51744
2019-04-25T07:37:47.066Z,50688
2019-04-25T07:38:48.443Z,49184
2019-04-25T07:39:49.814Z,46496
2019-04-25T07:40:51.195Z,44320
2019-04-25T07:41:54.011Z,42688
2019-04-25T07:42:53.897Z,40640
2019-04-25T07:43:55.267Z,38304
2019-04-25T07:44:56.669Z,36512
2019-04-25T07:45:58.025Z,35104
2019-04-25T07:46:59.403Z,34464
2019-04-25T07:48:00.768Z,34432
2019-04-25T07:49:03.378Z,34336
2019-04-25T07:50:03.988Z,34496
2019-04-25T07:51:04.828Z,34528
2019-04-25T07:52:06.451Z,34720
2019-04-25T07:53:07.820Z,34752
2019-04-25T07:54:09.208Z,34880
2019-04-25T07:55:10.574Z,34912
2019-04-25T07:56:11.954Z,35072
2019-04-25T07:57:13.548Z,35392
2019-04-25T07:58:14.668Z,35424
2019-04-25T07:59:16.036Z,35712
2019-04-25T08:00:17.409Z,35680
2019-04-25T08:01:18.795Z,35840
2019-04-25T08:02:20.164Z,36128
2019-04-25T08:03:21.537Z,36544
2019-04-25T08:04:23.619Z,36896
2019-04-25T08:05:24.271Z,37536
2019-04-25T08:06:25.630Z,38176
2019-04-25T08:07:28.015Z,38656
2019-04-25T08:08:28.365Z,38912
2019-04-25T08:10:09.274Z,39296
2019-04-25T08:11:10.648Z,39680
2019-04-25T08:12:13.277Z,39936
2019-04-25T08:13:13.384Z,40288
2019-04-25T08:14:14.738Z,40576
2019-04-25T08:15:16.113Z,40736
2019-04-25T08:16:17.489Z,40736
2019-04-25T08:17:18.878Z,40576
2019-04-25T08:18:20.232Z,40864
2019-04-25T08:19:21.613Z,41504
2019-04-25T08:20:23.656Z,42016
2019-04-25T08:21:24.333Z,42272
2019-04-25T08:22:25.710Z,42336
2019-04-25T08:23:27.092Z,42176
2019-04-25T08:24:29.177Z,42496
2019-04-25T08:25:30.737Z,42848
2019-04-25T08:26:31.223Z,43360
2019-04-25T08:27:34.316Z,44000
2019-04-25T08:28:34.488Z,44352
2019-04-25T08:29:37.613Z,44960
2019-04-25T08:30:36.712Z,45728
2019-04-25T08:31:37.839Z,46496
2019-04-25T08:32:39.602Z,47744
2019-04-25T08:33:40.543Z,49280
2019-04-25T08:34:42.763Z,50848
2019-04-25T08:36:03.016Z,55328
2019-04-25T08:36:45.672Z,67712
2019-04-25T08:37:45.936Z,81536
2019-04-25T08:38:47.324Z,86176
2019-04-25T08:39:48.703Z,87296
2019-04-25T08:40:50.087Z,87136
2019-04-25T08:41:51.462Z,81344
2019-04-25T08:42:53.783Z,96256
2019-04-25T08:43:54.496Z,88352
2019-04-25T08:44:55.506Z,88384
2019-04-25T08:45:56.883Z,87552
2019-04-25T08:46:58.260Z,95232
2019-04-25T08:47:59.635Z,101728
2019-04-25T08:49:02.208Z,101536
2019-04-25T08:50:03.522Z,101728
2019-04-25T08:51:03.757Z,110336
2019-04-25T08:52:05.084Z,116640
2019-04-25T08:53:06.472Z,115872
2019-04-25T08:54:07.830Z,112192
2019-04-25T08:55:09.209Z,110784
2019-04-25T08:56:10.579Z,114720
2019-04-25T08:57:11.965Z,111072
2019-04-25T08:58:13.780Z,114592
2019-04-25T08:59:14.694Z,105792
2019-04-25T09:00:16.072Z,59328
2019-04-25T09:01:17.444Z,65984
2019-04-25T09:02:18.839Z,50464
2019-04-25T09:03:20.230Z,46496
2019-04-25T09:04:21.604Z,46720
2019-04-25T09:05:24.228Z,49376
2019-04-25T09:06:24.467Z,54080
2019-04-25T09:07:25.687Z,58560
2019-04-25T09:08:27.042Z,55392
2019-04-25T09:09:28.420Z,63680
2019-04-25T09:10:29.797Z,42176
2019-04-25T09:11:32.380Z,53568
2019-04-25T09:12:35.194Z,60928
2019-04-25T09:13:35.834Z,146240
2019-04-25T09:14:36.270Z,44832
2019-04-25T09:15:37.972Z,46496
2019-04-25T09:16:38.073Z,48256
2019-04-25T09:17:39.496Z,49568
2019-04-25T09:18:40.804Z,56384
2019-04-25T09:19:42.184Z,48288
2019-04-25T09:20:46.221Z,65408
2019-04-25T09:21:48.054Z,147712
2019-04-25T09:22:46.245Z,78208
2019-04-25T09:23:47.606Z,75456
2019-04-25T09:24:48.985Z,66336
2019-04-25T09:25:50.354Z,88896
2019-04-25T09:26:51.724Z,90144
2019-04-25T09:27:54.196Z,95168
2019-04-25T09:28:54.428Z,105952
2019-04-25T09:29:55.800Z,98848
2019-04-25T09:30:57.169Z,76576
2019-04-25T09:31:58.539Z,78784
2019-04-25T09:32:59.931Z,91968
2019-04-25T09:34:01.304Z,93056
2019-04-25T09:35:03.777Z,75744
2019-04-25T09:36:04.834Z,57728
2019-04-25T09:37:05.476Z,56832
2019-04-25T09:38:06.838Z,53088
2019-04-25T09:39:08.224Z,65312
2019-04-25T09:40:09.595Z,82848
2019-04-25T09:41:10.969Z,71040
2019-04-25T09:42:14.117Z,67200
2019-04-25T09:43:13.723Z,108608
2019-04-25T09:44:15.054Z,78304
2019-04-25T09:45:16.440Z,153632
2019-04-25T09:46:17.826Z,94208
2019-04-25T09:47:19.203Z,77920
2019-04-25T09:48:20.578Z,60448
2019-04-25T09:49:23.712Z,75200
2019-04-25T09:50:23.759Z,99968
2019-04-25T09:51:24.639Z,89536
2019-04-25T09:52:26.029Z,87520
2019-04-25T09:53:27.402Z,96960
2019-04-25T09:54:28.816Z,87584
2019-04-25T09:55:30.185Z,96416
2019-04-25T09:56:31.573Z,77440
2019-04-25T09:57:33.492Z,100512
2019-04-25T09:58:34.288Z,102624
2019-04-25T09:59:36.400Z,129952
2019-04-25T10:00:38.077Z,79200
2019-04-25T10:01:38.345Z,64256
2019-04-25T10:02:40.212Z,82464
2019-04-25T10:03:41.095Z,64192
2019-04-25T10:04:43.773Z,68512
2019-04-25T10:05:44.696Z,57536
2019-04-25T10:06:45.891Z,53760
2019-04-25T10:07:48.679Z,73312
2019-04-25T10:08:47.881Z,72576
2019-04-25T10:09:49.260Z,60320
2019-04-25T10:10:50.639Z,55904
2019-04-25T10:11:52.014Z,58112
2019-04-25T10:12:54.800Z,60320
2019-04-25T10:13:54.744Z,64256
2019-04-25T10:14:56.164Z,132896
2019-04-25T10:15:57.605Z,64704
2019-04-25T10:16:58.983Z,65888
2019-04-25T10:18:00.375Z,67776
2019-04-25T10:19:03.342Z,74752
2019-04-25T10:20:03.155Z,94784
2019-04-25T10:21:04.543Z,99776
2019-04-25T10:22:05.909Z,58208
2019-04-25T10:23:07.309Z,62848
2019-04-25T10:24:08.676Z,65312
2019-04-25T10:25:10.060Z,101056
2019-04-25T10:26:11.433Z,76800
2019-04-25T10:27:13.873Z,60288
2019-04-25T10:28:14.191Z,58176
2019-04-25T10:29:15.568Z,49568
2019-04-25T10:30:20.570Z,48736
2019-04-25T10:31:18.293Z,48800
2019-04-25T10:32:19.665Z,48512
2019-04-25T10:33:21.047Z,48544
2019-04-25T10:34:23.819Z,53696
2019-04-25T10:35:23.887Z,49632
2019-04-25T10:36:25.119Z,49728
2019-04-25T10:37:26.490Z,50208
2019-04-25T10:38:27.872Z,46464
2019-04-25T10:39:29.350Z,44800
2019-04-25T10:40:30.597Z,46624
2019-04-25T10:41:33.700Z,46208
2019-04-25T10:42:34.288Z,47168
2019-04-25T10:43:34.681Z,55040
2019-04-25T10:44:36.081Z,93280
2019-04-25T10:45:37.455Z,59744
2019-04-25T10:46:39.361Z,53088
2019-04-25T10:47:40.227Z,49728
2019-04-25T10:48:41.952Z,48928
2019-04-25T10:49:44.658Z,48192
2019-04-25T10:50:45.581Z,49344
2019-04-25T10:51:45.787Z,54016
2019-04-25T10:52:47.138Z,62144
2019-04-25T10:53:48.795Z,55520
2019-04-25T10:54:49.636Z,55168
2019-04-25T10:55:51.744Z,60576
2019-04-25T10:56:52.384Z,71904
2019-04-25T10:57:54.959Z,117152
2019-04-25T10:58:55.088Z,90368
2019-04-25T11:00:06.253Z,111520
2019-04-25T11:00:57.825Z,139648
2019-04-25T11:01:59.220Z,106144
2019-04-25T11:03:00.613Z,104576
2019-04-25T11:04:01.982Z,112192
2019-04-25T11:05:03.523Z,110304
2019-04-25T11:06:04.729Z,119424
2019-04-25T11:07:06.097Z,73824
2019-04-25T11:08:07.481Z,84320
2019-04-25T11:09:08.874Z,93920
2019-04-25T11:10:10.250Z,60960
2019-04-25T11:11:11.645Z,45632
2019-04-25T11:12:13.016Z,47744
2019-04-25T11:13:14.427Z,50688
2019-04-25T11:14:15.780Z,53728
2019-04-25T11:15:17.170Z,52800
2019-04-25T11:16:18.557Z,46720
2019-04-25T11:17:19.936Z,45440
2019-04-25T11:18:21.360Z,45216
2019-04-25T11:19:23.838Z,58176
2019-04-25T11:20:24.078Z,57472
2019-04-25T11:21:25.452Z,47456
2019-04-25T11:22:26.832Z,45536
2019-04-25T11:23:28.223Z,44256
2019-04-25T11:24:29.594Z,43168
2019-04-25T11:25:30.970Z,42528
2019-04-25T11:26:34.474Z,45856
2019-04-25T11:27:34.025Z,45120
2019-04-25T11:28:35.036Z,43136
2019-04-25T11:29:36.428Z,42432
2019-04-25T11:30:37.817Z,41760
2019-04-25T11:31:39.192Z,42080
2019-04-25T11:32:40.567Z,44096
2019-04-25T11:33:41.955Z,44224
2019-04-25T11:34:44.834Z,44864
2019-04-25T11:35:47.500Z,49536
2019-04-25T11:36:46.012Z,51360
2019-04-25T11:37:48.382Z,50400
2019-04-25T11:38:49.450Z,72960
2019-04-25T11:39:50.404Z,59840
2019-04-25T11:40:51.508Z,51680
2019-04-25T11:41:54.338Z,49984
2019-04-25T11:42:54.544Z,57184
2019-04-25T11:44:00.372Z,67808
2019-04-25T11:45:00.547Z,75744
2019-04-25T11:46:01.236Z,64416
2019-04-25T11:47:03.898Z,57728
2019-04-25T11:48:05.326Z,52288
2019-04-25T11:49:05.315Z,89504
2019-04-25T11:50:06.690Z,65664
2019-04-25T11:51:08.070Z,52544
2019-04-25T11:52:09.442Z,57536
2019-04-25T11:53:10.838Z,46624
2019-04-25T11:54:13.811Z,54720
2019-04-25T11:55:14.312Z,44448
2019-04-25T11:56:14.902Z,53344
2019-04-25T11:57:16.284Z,40416
2019-04-25T11:58:17.657Z,39744
2019-04-25T11:59:19.082Z,48096
2019-04-25T12:00:22.142Z,43296
2019-04-25T12:01:21.794Z,54912
2019-04-25T12:02:23.970Z,66240
2019-04-25T12:03:24.643Z,61792
2019-04-25T12:04:25.885Z,60672
2019-04-25T12:05:27.266Z,77280
2019-04-25T12:06:28.649Z,105312
2019-04-25T12:07:30.037Z,54368
2019-04-25T12:08:31.407Z,44576
2019-04-25T12:09:33.659Z,39936
2019-04-25T12:10:34.635Z,49632
2019-04-25T12:11:35.476Z,45536
2019-04-25T12:12:37.313Z,82496
2019-04-25T12:13:38.196Z,100096
2019-04-25T12:14:39.573Z,60000
2019-04-25T12:15:40.958Z,64928
2019-04-25T12:16:46.137Z,126080
2019-04-25T12:17:43.856Z,138752
2019-04-25T12:18:47.614Z,110432
2019-04-25T12:19:47.073Z,114304
2019-04-25T12:20:48.713Z,101728
2019-04-25T12:21:49.130Z,101888
2019-04-25T12:23:03.276Z,99136
2019-04-25T12:23:51.844Z,58016
2019-04-25T12:24:54.335Z,42336
2019-04-25T12:25:55.254Z,54368
2019-04-25T12:26:56.029Z,60832
2019-04-25T12:27:57.260Z,90976
2019-04-25T12:28:58.651Z,36224
2019-04-25T12:30:00.012Z,34080
2019-04-25T12:31:01.402Z,33568
2019-04-25T12:32:03.926Z,40160
2019-04-25T12:33:04.134Z,75552
2019-04-25T12:34:05.510Z,75104
2019-04-25T12:35:06.902Z,72608
2019-04-25T12:36:08.275Z,73472
2019-04-25T12:37:09.667Z,78624
2019-04-25T12:38:11.051Z,71200
2019-04-25T12:39:13.805Z,64992
2019-04-25T12:40:14.064Z,66336
2019-04-25T12:41:15.151Z,79648
2019-04-25T12:42:16.632Z,59456
2019-04-25T12:43:18.009Z,67872
2019-04-25T12:44:19.387Z,60384
2019-04-25T12:45:20.786Z,41536
2019-04-25T12:46:22.163Z,50368
2019-04-25T12:47:23.995Z,37216
2019-04-25T12:48:24.891Z,50432
2019-04-25T12:49:26.281Z,68928
2019-04-25T12:50:27.656Z,75968
2019-04-25T12:51:29.032Z,82880
2019-04-25T12:52:30.410Z,89184
2019-04-25T12:53:31.791Z,85664
2019-04-25T12:54:33.956Z,86752
2019-04-25T12:55:34.536Z,80192
2019-04-25T12:56:35.926Z,74496
2019-04-25T12:57:37.299Z,78432
2019-04-25T12:58:38.668Z,78912
2019-04-25T12:59:40.058Z,76288
2019-04-25T13:00:47.963Z,75104
2019-04-25T13:01:43.445Z,81408
2019-04-25T13:02:44.685Z,77248
2019-04-25T13:03:45.492Z,75360
2019-04-25T13:04:47.630Z,72448
2019-04-25T13:05:48.216Z,70560
2019-04-25T13:06:50.503Z,67200
2019-04-25T13:07:51.466Z,52608
2019-04-25T13:08:54.093Z,59136
2019-04-25T13:09:53.753Z,67264
2019-04-25T13:11:07.240Z,70112
2019-04-25T13:11:56.352Z,66880
2019-04-25T13:12:57.738Z,69760
2019-04-25T13:13:59.114Z,65248
2019-04-25T13:15:00.506Z,59328
2019-04-25T13:16:01.883Z,62240
2019-04-25T13:17:04.045Z,62784
2019-04-25T13:18:04.618Z,57856
2019-04-25T13:19:16.430Z,50176
2019-04-25T13:20:07.571Z,49312
2019-04-25T13:21:08.708Z,59136
2019-04-25T13:22:10.076Z,57536
2019-04-25T13:23:11.458Z,46528
2019-04-25T13:24:12.903Z,45696
2019-04-25T13:25:14.375Z,32064
2019-04-25T13:26:15.631Z,31584
2019-04-25T13:27:16.999Z,42208
2019-04-25T13:28:18.377Z,61888
2019-04-25T13:29:21.226Z,44224
2019-04-25T13:30:21.091Z,53344
2019-04-25T13:31:23.308Z,74272
2019-04-25T13:32:23.858Z,57728
2019-04-25T13:33:25.218Z,62176
2019-04-25T13:34:36.141Z,71200
2019-04-25T13:35:27.943Z,53760
2019-04-25T13:36:29.330Z,58528
2019-04-25T13:37:30.712Z,69760
2019-04-25T13:38:32.097Z,70272
2019-04-25T13:39:34.175Z,57248
2019-04-25T13:40:34.821Z,73952
2019-04-25T13:41:36.197Z,80768
2019-04-25T13:42:37.586Z,61696
2019-04-25T13:43:38.972Z,36416
2019-04-25T13:44:40.338Z,43904
2019-04-25T13:45:41.709Z,81632